sensor_id;sensor_type;location;lat;lon;timestamp;pressure;altitude;pressure_sealevel;temperature;humidity
47430;BME280;33181;49.246;7.372;2023-06-10T00:00:50;98431.75;;;18.89;62.86
47430;BME280;33181;49.246;7.372;2023-06-10T00:03:17;98437.22;;;18.87;62.77
47430;BME280;33181;49.246;7.372;2023-06-10T00:05:43;98435.22;;;18.89;62.72
47430;BME280;33181;49.246;7.372;2023-06-10T00:08:09;98439.28;;;18.85;62.93
47430;BME280;33181;49.246;7.372;2023-06-10T00:10:39;98443.81;;;18.91;62.81
47430;BME280;33181;49.246;7.372;2023-06-10T00:13:08;98435.31;;;18.96;62.57
47430;BME280;33181;49.246;7.372;2023-06-10T00:15:34;98435.22;;;19.04;62.46
47430;BME280;33181;49.246;7.372;2023-06-10T00:18:01;98431.16;;;19.08;62.26
47430;BME280;33181;49.246;7.372;2023-06-10T00:20:29;98434.56;;;19.17;62.33
47430;BME280;33181;49.246;7.372;2023-06-10T00:22:58;98434.63;;;19.24;63.06
47430;BME280;33181;49.246;7.372;2023-06-10T00:25:26;98437.75;;;19.27;63.26
47430;BME280;33181;49.246;7.372;2023-06-10T00:27:52;98424.41;;;19.27;63.48
47430;BME280;33181;49.246;7.372;2023-06-10T00:30:18;98425.03;;;19.29;63.61
47430;BME280;33181;49.246;7.372;2023-06-10T00:32:44;98436.34;;;19.31;63.54
47430;BME280;33181;49.246;7.372;2023-06-10T00:35:10;98435.44;;;19.24;63.79
47430;BME280;33181;49.246;7.372;2023-06-10T00:37:36;98435.63;;;19.22;63.94
47430;BME280;33181;49.246;7.372;2023-06-10T00:40:04;98431.50;;;19.20;64.17
47430;BME280;33181;49.246;7.372;2023-06-10T00:42:30;98429.41;;;19.15;64.25
47430;BME280;33181;49.246;7.372;2023-06-10T00:44:57;98437.97;;;19.11;64.64
47430;BME280;33181;49.246;7.372;2023-06-10T00:47:23;98434.66;;;19.09;64.60
47430;BME280;33181;49.246;7.372;2023-06-10T00:49:49;98432.16;;;19.07;64.59
47430;BME280;33181;49.246;7.372;2023-06-10T00:52:17;98433.38;;;19.05;64.69
47430;BME280;33181;49.246;7.372;2023-06-10T00:54:45;98428.97;;;18.97;64.61
47430;BME280;33181;49.246;7.372;2023-06-10T00:57:12;98432.19;;;18.92;64.97
47430;BME280;33181;49.246;7.372;2023-06-10T00:59:46;98427.22;;;18.89;65.19
47430;BME280;33181;49.246;7.372;2023-06-10T01:02:14;98427.41;;;18.88;65.06
47430;BME280;33181;49.246;7.372;2023-06-10T01:04:40;98432.63;;;18.81;65.17
47430;BME280;33181;49.246;7.372;2023-06-10T01:07:22;98434.03;;;18.77;65.30
47430;BME280;33181;49.246;7.372;2023-06-10T01:10:16;98438.22;;;18.71;65.41
47430;BME280;33181;49.246;7.372;2023-06-10T01:13:07;98436.13;;;18.67;65.64
47430;BME280;33181;49.246;7.372;2023-06-10T01:15:35;98435.47;;;18.65;65.75
47430;BME280;33181;49.246;7.372;2023-06-10T01:18:07;98434.19;;;18.61;65.83
47430;BME280;33181;49.246;7.372;2023-06-10T01:20:41;98434.56;;;18.58;65.77
47430;BME280;33181;49.246;7.372;2023-06-10T01:23:10;98436.91;;;18.52;65.58
47430;BME280;33181;49.246;7.372;2023-06-10T01:26:00;98434.72;;;18.41;65.71
47430;BME280;33181;49.246;7.372;2023-06-10T01:28:49;98435.09;;;18.38;66.12
47430;BME280;33181;49.246;7.372;2023-06-10T01:31:38;98435.91;;;18.39;66.14
47430;BME280;33181;49.246;7.372;2023-06-10T01:34:18;98435.25;;;18.37;66.00
47430;BME280;33181;49.246;7.372;2023-06-10T01:36:48;98438.09;;;18.35;66.34
47430;BME280;33181;49.246;7.372;2023-06-10T01:39:16;98437.25;;;18.35;66.31
47430;BME280;33181;49.246;7.372;2023-06-10T01:41:43;98442.78;;;18.33;66.39
47430;BME280;33181;49.246;7.372;2023-06-10T01:44:10;98441.75;;;18.34;66.29
47430;BME280;33181;49.246;7.372;2023-06-10T01:46:37;98443.94;;;18.30;66.35
47430;BME280;33181;49.246;7.372;2023-06-10T01:49:02;98447.53;;;18.23;66.37
47430;BME280;33181;49.246;7.372;2023-06-10T01:51:28;98449.72;;;18.19;66.81
47430;BME280;33181;49.246;7.372;2023-06-10T01:53:56;98454.19;;;18.19;66.67
47430;BME280;33181;49.246;7.372;2023-06-10T01:56:22;98451.72;;;18.17;67.02
47430;BME280;33181;49.246;7.372;2023-06-10T01:58:48;98444.09;;;18.14;67.13
47430;BME280;33181;49.246;7.372;2023-06-10T02:01:14;98438.97;;;18.13;67.36
47430;BME280;33181;49.246;7.372;2023-06-10T02:03:40;98446.97;;;18.13;67.12
47430;BME280;33181;49.246;7.372;2023-06-10T02:06:06;98448.13;;;18.10;67.02
47430;BME280;33181;49.246;7.372;2023-06-10T02:08:32;98451.97;;;18.08;67.04
47430;BME280;33181;49.246;7.372;2023-06-10T02:10:59;98443.34;;;18.05;67.19
47430;BME280;33181;49.246;7.372;2023-06-10T02:13:27;98445.19;;;18.05;66.97
47430;BME280;33181;49.246;7.372;2023-06-10T02:15:53;98454.34;;;18.02;67.08
47430;BME280;33181;49.246;7.372;2023-06-10T02:18:20;98455.41;;;17.93;66.89
47430;BME280;33181;49.246;7.372;2023-06-10T02:20:46;98454.31;;;17.88;67.44
47430;BME280;33181;49.246;7.372;2023-06-10T02:23:12;98464.75;;;17.89;67.37
47430;BME280;33181;49.246;7.372;2023-06-10T02:25:38;98464.28;;;17.86;67.26
47430;BME280;33181;49.246;7.372;2023-06-10T02:28:08;98459.66;;;17.79;67.46
47430;BME280;33181;49.246;7.372;2023-06-10T02:30:35;98457.31;;;17.76;67.53
47430;BME280;33181;49.246;7.372;2023-06-10T02:33:02;98455.22;;;17.72;67.92
47430;BME280;33181;49.246;7.372;2023-06-10T02:35:28;98451.59;;;17.65;67.91
47430;BME280;33181;49.246;7.372;2023-06-10T02:37:53;98461.75;;;17.61;68.00
47430;BME280;33181;49.246;7.372;2023-06-10T02:40:20;98459.09;;;17.61;68.37
47430;BME280;33181;49.246;7.372;2023-06-10T02:42:46;98461.94;;;17.59;68.44
47430;BME280;33181;49.246;7.372;2023-06-10T02:45:12;98457.31;;;17.53;68.53
47430;BME280;33181;49.246;7.372;2023-06-10T02:47:39;98466.16;;;17.46;68.54
47430;BME280;33181;49.246;7.372;2023-06-10T02:50:08;98461.03;;;17.44;68.67
47430;BME280;33181;49.246;7.372;2023-06-10T02:52:34;98464.03;;;17.41;68.84
47430;BME280;33181;49.246;7.372;2023-06-10T02:55:00;98464.03;;;17.41;68.79
47430;BME280;33181;49.246;7.372;2023-06-10T02:57:26;98463.22;;;17.41;68.77
47430;BME280;33181;49.246;7.372;2023-06-10T02:59:51;98467.66;;;17.40;68.79
47430;BME280;33181;49.246;7.372;2023-06-10T03:02:19;98459.06;;;17.38;68.61
47430;BME280;33181;49.246;7.372;2023-06-10T03:04:45;98462.34;;;17.40;68.55
47430;BME280;33181;49.246;7.372;2023-06-10T03:07:11;98465.00;;;17.40;68.66
47430;BME280;33181;49.246;7.372;2023-06-10T03:09:37;98468.06;;;17.29;68.74
47430;BME280;33181;49.246;7.372;2023-06-10T03:12:03;98467.75;;;17.24;69.04
47430;BME280;33181;49.246;7.372;2023-06-10T03:14:29;98474.06;;;17.23;69.30
47430;BME280;33181;49.246;7.372;2023-06-10T03:16:55;98468.41;;;17.26;69.21
47430;BME280;33181;49.246;7.372;2023-06-10T03:19:21;98471.06;;;17.26;69.19
47430;BME280;33181;49.246;7.372;2023-06-10T03:21:59;98470.88;;;17.27;69.14
47430;BME280;33181;49.246;7.372;2023-06-10T03:24:32;98467.06;;;17.30;68.97
47430;BME280;33181;49.246;7.372;2023-06-10T03:26:57;98475.69;;;17.32;68.63
47430;BME280;33181;49.246;7.372;2023-06-10T03:29:27;98468.88;;;17.29;68.67
47430;BME280;33181;49.246;7.372;2023-06-10T03:31:52;98477.88;;;17.28;68.56
47430;BME280;33181;49.246;7.372;2023-06-10T03:34:18;98468.56;;;17.24;68.65
47430;BME280;33181;49.246;7.372;2023-06-10T03:36:44;98469.44;;;17.25;68.82
47430;BME280;33181;49.246;7.372;2023-06-10T03:39:10;98467.59;;;17.25;68.42
47430;BME280;33181;49.246;7.372;2023-06-10T03:41:36;98475.22;;;17.28;68.09
47430;BME280;33181;49.246;7.372;2023-06-10T03:44:03;98471.31;;;17.39;68.15
47430;BME280;33181;49.246;7.372;2023-06-10T03:46:29;98475.22;;;17.59;68.22
47430;BME280;33181;49.246;7.372;2023-06-10T03:48:55;98468.97;;;17.75;67.28
47430;BME280;33181;49.246;7.372;2023-06-10T03:51:22;98472.78;;;18.04;66.44
47430;BME280;33181;49.246;7.372;2023-06-10T03:53:48;98478.16;;;18.34;65.06
47430;BME280;33181;49.246;7.372;2023-06-10T03:56:14;98481.88;;;18.62;64.24
47430;BME280;33181;49.246;7.372;2023-06-10T03:58:40;98480.63;;;19.03;63.25
47430;BME280;33181;49.246;7.372;2023-06-10T04:01:06;98481.31;;;19.41;62.07
47430;BME280;33181;49.246;7.372;2023-06-10T04:03:32;98476.03;;;19.77;60.58
47430;BME280;33181;49.246;7.372;2023-06-10T04:05:58;98483.84;;;20.22;59.35
47430;BME280;33181;49.246;7.372;2023-06-10T04:08:25;98489.69;;;20.38;57.72
47430;BME280;33181;49.246;7.372;2023-06-10T04:10:51;98486.78;;;20.55;57.34
47430;BME280;33181;49.246;7.372;2023-06-10T04:13:18;98490.56;;;21.02;55.96
47430;BME280;33181;49.246;7.372;2023-06-10T04:15:45;98494.09;;;21.44;55.30
47430;BME280;33181;49.246;7.372;2023-06-10T04:18:11;98490.94;;;21.95;53.48
47430;BME280;33181;49.246;7.372;2023-06-10T04:20:37;98498.44;;;22.39;52.83
47430;BME280;33181;49.246;7.372;2023-06-10T04:23:03;98498.81;;;22.70;51.42
47430;BME280;33181;49.246;7.372;2023-06-10T04:25:29;98501.41;;;23.23;50.16
47430;BME280;33181;49.246;7.372;2023-06-10T04:27:56;98499.66;;;23.48;48.83
47430;BME280;33181;49.246;7.372;2023-06-10T04:30:22;98496.41;;;23.85;48.68
47430;BME280;33181;49.246;7.372;2023-06-10T04:32:48;98507.09;;;24.23;47.42
47430;BME280;33181;49.246;7.372;2023-06-10T04:35:15;98504.28;;;24.43;46.98
47430;BME280;33181;49.246;7.372;2023-06-10T04:37:41;98506.75;;;24.13;47.51
47430;BME280;33181;49.246;7.372;2023-06-10T04:40:09;98511.13;;;24.07;48.05
47430;BME280;33181;49.246;7.372;2023-06-10T04:42:36;98514.44;;;23.71;48.50
47430;BME280;33181;49.246;7.372;2023-06-10T04:45:05;98513.06;;;23.42;49.16
47430;BME280;33181;49.246;7.372;2023-06-10T04:47:31;98519.78;;;23.12;50.19
47430;BME280;33181;49.246;7.372;2023-06-10T04:50:03;98524.13;;;23.00;50.63
47430;BME280;33181;49.246;7.372;2023-06-10T04:52:30;98522.09;;;22.96;50.97
47430;BME280;33181;49.246;7.372;2023-06-10T04:54:57;98520.00;;;22.91;51.56
47430;BME280;33181;49.246;7.372;2023-06-10T04:57:23;98513.66;;;22.99;51.26
47430;BME280;33181;49.246;7.372;2023-06-10T04:59:49;98521.88;;;22.97;51.85
47430;BME280;33181;49.246;7.372;2023-06-10T05:02:15;98506.56;;;23.24;51.09
47430;BME280;33181;49.246;7.372;2023-06-10T05:04:41;98511.81;;;23.51;50.34
47430;BME280;33181;49.246;7.372;2023-06-10T05:07:07;98518.53;;;23.67;49.79
47430;BME280;33181;49.246;7.372;2023-06-10T05:09:33;98519.94;;;23.82;49.48
47430;BME280;33181;49.246;7.372;2023-06-10T05:11:58;98519.03;;;23.95;49.18
47430;BME280;33181;49.246;7.372;2023-06-10T05:14:24;98516.44;;;24.14;49.30
47430;BME280;33181;49.246;7.372;2023-06-10T05:16:50;98515.09;;;24.29;49.02
47430;BME280;33181;49.246;7.372;2023-06-10T05:19:16;98514.22;;;24.36;48.86
47430;BME280;33181;49.246;7.372;2023-06-10T05:21:44;98519.94;;;24.46;48.69
47430;BME280;33181;49.246;7.372;2023-06-10T05:24:11;98521.38;;;24.48;49.05
47430;BME280;33181;49.246;7.372;2023-06-10T05:26:37;98523.63;;;24.51;49.20
47430;BME280;33181;49.246;7.372;2023-06-10T05:29:08;98523.50;;;24.65;48.64
47430;BME280;33181;49.246;7.372;2023-06-10T05:31:43;98524.50;;;24.70;48.01
47430;BME280;33181;49.246;7.372;2023-06-10T05:34:10;98517.72;;;24.86;48.09
47430;BME280;33181;49.246;7.372;2023-06-10T05:36:36;98531.31;;;24.73;47.48
47430;BME280;33181;49.246;7.372;2023-06-10T05:39:02;98530.41;;;24.79;47.51
47430;BME280;33181;49.246;7.372;2023-06-10T05:41:28;98526.41;;;24.88;47.59
47430;BME280;33181;49.246;7.372;2023-06-10T05:43:54;98527.31;;;25.01;47.61
47430;BME280;33181;49.246;7.372;2023-06-10T05:46:21;98532.91;;;24.99;46.85
47430;BME280;33181;49.246;7.372;2023-06-10T05:48:47;98532.47;;;25.02;47.45
47430;BME280;33181;49.246;7.372;2023-06-10T05:51:12;98528.75;;;25.22;47.05
47430;BME280;33181;49.246;7.372;2023-06-10T05:53:38;98542.38;;;25.45;46.74
47430;BME280;33181;49.246;7.372;2023-06-10T05:56:05;98535.78;;;25.59;46.18
47430;BME280;33181;49.246;7.372;2023-06-10T05:58:31;98546.75;;;25.76;46.05
47430;BME280;33181;49.246;7.372;2023-06-10T06:00:57;98532.91;;;25.91;45.80
47430;BME280;33181;49.246;7.372;2023-06-10T06:03:41;98545.81;;;26.01;45.07
47430;BME280;33181;49.246;7.372;2023-06-10T06:06:08;98543.75;;;26.15;45.15
47430;BME280;33181;49.246;7.372;2023-06-10T06:08:34;98541.63;;;26.05;44.13
47430;BME280;33181;49.246;7.372;2023-06-10T06:10:59;98533.59;;;25.86;44.97
47430;BME280;33181;49.246;7.372;2023-06-10T06:13:28;98547.53;;;26.14;44.87
47430;BME280;33181;49.246;7.372;2023-06-10T06:15:54;98541.00;;;26.33;44.42
47430;BME280;33181;49.246;7.372;2023-06-10T06:18:20;98539.38;;;26.44;44.24
47430;BME280;33181;49.246;7.372;2023-06-10T06:20:46;98536.75;;;26.67;44.25
47430;BME280;33181;49.246;7.372;2023-06-10T06:23:12;98540.19;;;26.32;43.36
47430;BME280;33181;49.246;7.372;2023-06-10T06:25:38;98532.66;;;26.23;44.05
47430;BME280;33181;49.246;7.372;2023-06-10T06:28:10;98540.78;;;26.46;44.67
47430;BME280;33181;49.246;7.372;2023-06-10T06:30:35;98529.69;;;26.54;43.43
47430;BME280;33181;49.246;7.372;2023-06-10T06:33:02;98532.63;;;26.76;42.99
47430;BME280;33181;49.246;7.372;2023-06-10T06:35:34;98533.13;;;26.97;43.55
47430;BME280;33181;49.246;7.372;2023-06-10T06:38:00;98533.72;;;27.22;42.82
47430;BME280;33181;49.246;7.372;2023-06-10T06:40:26;98527.66;;;27.56;42.92
47430;BME280;33181;49.246;7.372;2023-06-10T06:42:52;98528.75;;;27.43;42.01
47430;BME280;33181;49.246;7.372;2023-06-10T06:45:18;98540.44;;;27.60;41.95
47430;BME280;33181;49.246;7.372;2023-06-10T06:47:44;98536.28;;;27.81;41.59
47430;BME280;33181;49.246;7.372;2023-06-10T06:50:13;98531.75;;;27.99;41.11
47430;BME280;33181;49.246;7.372;2023-06-10T06:52:40;98542.59;;;28.15;41.46
47430;BME280;33181;49.246;7.372;2023-06-10T06:55:06;98540.00;;;28.37;41.42
47430;BME280;33181;49.246;7.372;2023-06-10T06:57:32;98534.13;;;28.57;40.33
47430;BME280;33181;49.246;7.372;2023-06-10T06:59:58;98541.34;;;28.85;40.71
47430;BME280;33181;49.246;7.372;2023-06-10T07:02:24;98540.53;;;28.85;40.70
47430;BME280;33181;49.246;7.372;2023-06-10T07:04:51;98536.25;;;28.55;40.20
47430;BME280;33181;49.246;7.372;2023-06-10T07:07:17;98540.72;;;27.87;41.41
47430;BME280;33181;49.246;7.372;2023-06-10T07:09:42;98543.72;;;28.03;42.10
47430;BME280;33181;49.246;7.372;2023-06-10T07:12:09;98545.06;;;28.34;40.79
47430;BME280;33181;49.246;7.372;2023-06-10T07:14:35;98549.97;;;27.91;41.09
47430;BME280;33181;49.246;7.372;2023-06-10T07:17:01;98539.75;;;27.53;41.94
47430;BME280;33181;49.246;7.372;2023-06-10T07:19:56;98542.81;;;27.45;42.76
47430;BME280;33181;49.246;7.372;2023-06-10T07:22:25;98543.19;;;27.37;42.85
47430;BME280;33181;49.246;7.372;2023-06-10T07:24:51;98549.66;;;27.24;43.45
47430;BME280;33181;49.246;7.372;2023-06-10T07:27:19;98545.28;;;27.46;43.33
47430;BME280;33181;49.246;7.372;2023-06-10T07:29:46;98547.91;;;27.70;42.69
47430;BME280;33181;49.246;7.372;2023-06-10T07:32:11;98545.53;;;27.73;42.02
47430;BME280;33181;49.246;7.372;2023-06-10T07:34:38;98546.28;;;28.26;41.47
47430;BME280;33181;49.246;7.372;2023-06-10T07:37:05;98543.81;;;27.79;41.08
47430;BME280;33181;49.246;7.372;2023-06-10T07:39:32;98545.34;;;27.63;41.98
47430;BME280;33181;49.246;7.372;2023-06-10T07:41:57;98542.88;;;28.02;41.13
47430;BME280;33181;49.246;7.372;2023-06-10T07:44:24;98552.22;;;28.11;40.98
47430;BME280;33181;49.246;7.372;2023-06-10T07:46:50;98542.09;;;27.90;40.83
47430;BME280;33181;49.246;7.372;2023-06-10T07:49:15;98554.38;;;27.69;41.92
47430;BME280;33181;49.246;7.372;2023-06-10T07:51:41;98541.09;;;27.67;41.94
47430;BME280;33181;49.246;7.372;2023-06-10T07:54:07;98542.50;;;27.82;41.21
47430;BME280;33181;49.246;7.372;2023-06-10T07:56:33;98549.13;;;27.62;41.85
47430;BME280;33181;49.246;7.372;2023-06-10T07:59:00;98538.50;;;27.72;42.54
47430;BME280;33181;49.246;7.372;2023-06-10T08:01:25;98539.06;;;27.86;41.35
47430;BME280;33181;49.246;7.372;2023-06-10T08:03:52;98549.78;;;27.81;41.40
47430;BME280;33181;49.246;7.372;2023-06-10T08:06:17;98544.63;;;27.68;41.12
47430;BME280;33181;49.246;7.372;2023-06-10T08:08:45;98544.25;;;27.76;41.79
47430;BME280;33181;49.246;7.372;2023-06-10T08:11:11;98542.94;;;27.38;41.49
47430;BME280;33181;49.246;7.372;2023-06-10T08:13:37;98547.66;;;27.19;42.61
47430;BME280;33181;49.246;7.372;2023-06-10T08:16:04;98550.25;;;27.14;42.25
47430;BME280;33181;49.246;7.372;2023-06-10T08:18:30;98553.28;;;27.06;42.67
47430;BME280;33181;49.246;7.372;2023-06-10T08:20:55;98544.84;;;27.26;42.41
47430;BME280;33181;49.246;7.372;2023-06-10T08:23:21;98549.38;;;27.49;41.41
47430;BME280;33181;49.246;7.372;2023-06-10T08:25:47;98540.44;;;27.60;41.36
47430;BME280;33181;49.246;7.372;2023-06-10T08:28:13;98539.03;;;27.58;41.65
47430;BME280;33181;49.246;7.372;2023-06-10T08:30:39;98544.47;;;27.46;41.28
47430;BME280;33181;49.246;7.372;2023-06-10T08:33:04;98537.44;;;27.33;40.69
47430;BME280;33181;49.246;7.372;2023-06-10T08:35:32;98539.63;;;27.60;40.98
47430;BME280;33181;49.246;7.372;2023-06-10T08:37:58;98543.09;;;27.84;40.45
47430;BME280;33181;49.246;7.372;2023-06-10T08:40:24;98540.03;;;27.28;41.26
47430;BME280;33181;49.246;7.372;2023-06-10T08:43:05;98550.78;;;27.52;41.17
47430;BME280;33181;49.246;7.372;2023-06-10T08:45:32;98542.59;;;27.46;41.01
47430;BME280;33181;49.246;7.372;2023-06-10T08:48:05;98548.00;;;27.23;41.21
47430;BME280;33181;49.246;7.372;2023-06-10T08:50:36;98545.88;;;27.13;41.32
47430;BME280;33181;49.246;7.372;2023-06-10T08:53:06;98561.03;;;26.91;41.54
47430;BME280;33181;49.246;7.372;2023-06-10T08:55:35;98559.13;;;26.56;41.85
47430;BME280;33181;49.246;7.372;2023-06-10T08:58:03;98541.22;;;26.97;42.29
47430;BME280;33181;49.246;7.372;2023-06-10T09:00:30;98541.22;;;27.09;41.65
47430;BME280;33181;49.246;7.372;2023-06-10T09:02:59;98535.00;;;27.08;42.10
47430;BME280;33181;49.246;7.372;2023-06-10T09:05:28;98533.09;;;27.44;41.67
47430;BME280;33181;49.246;7.372;2023-06-10T09:07:57;98528.13;;;27.93;40.27
47430;BME280;33181;49.246;7.372;2023-06-10T09:10:23;98529.00;;;28.27;40.71
47430;BME280;33181;49.246;7.372;2023-06-10T09:12:49;98529.59;;;27.72;41.38
47430;BME280;33181;49.246;7.372;2023-06-10T09:15:15;98533.13;;;27.72;40.82
47430;BME280;33181;49.246;7.372;2023-06-10T09:17:43;98520.88;;;27.41;40.70
47430;BME280;33181;49.246;7.372;2023-06-10T09:20:10;98524.72;;;27.57;40.77
47430;BME280;33181;49.246;7.372;2023-06-10T09:22:36;98537.09;;;27.70;40.67
47430;BME280;33181;49.246;7.372;2023-06-10T09:25:07;98539.06;;;27.46;40.52
47430;BME280;33181;49.246;7.372;2023-06-10T09:27:50;98541.91;;;26.80;41.01
47430;BME280;33181;49.246;7.372;2023-06-10T09:30:26;98540.97;;;26.87;40.96
47430;BME280;33181;49.246;7.372;2023-06-10T09:32:58;98542.16;;;26.91;41.45
47430;BME280;33181;49.246;7.372;2023-06-10T09:35:26;98532.53;;;26.95;40.50
47430;BME280;33181;49.246;7.372;2023-06-10T09:37:54;98524.78;;;27.34;40.07
47430;BME280;33181;49.246;7.372;2023-06-10T09:40:20;98529.13;;;27.75;39.96
47430;BME280;33181;49.246;7.372;2023-06-10T09:42:46;98524.28;;;27.89;38.99
47430;BME280;33181;49.246;7.372;2023-06-10T09:45:19;98531.50;;;27.71;39.15
47430;BME280;33181;49.246;7.372;2023-06-10T09:47:55;98534.69;;;27.57;39.45
47430;BME280;33181;49.246;7.372;2023-06-10T09:50:21;98520.94;;;27.58;39.42
47430;BME280;33181;49.246;7.372;2023-06-10T09:52:47;98518.72;;;27.55;38.79
47430;BME280;33181;49.246;7.372;2023-06-10T09:55:14;98523.78;;;27.92;39.98
47430;BME280;33181;49.246;7.372;2023-06-10T09:57:39;98518.56;;;28.02;38.51
47430;BME280;33181;49.246;7.372;2023-06-10T10:00:09;98512.13;;;28.37;38.83
47430;BME280;33181;49.246;7.372;2023-06-10T10:02:53;98535.88;;;27.89;38.07
47430;BME280;33181;49.246;7.372;2023-06-10T10:05:22;98521.63;;;27.77;38.63
47430;BME280;33181;49.246;7.372;2023-06-10T10:07:49;98518.78;;;28.12;38.02
47430;BME280;33181;49.246;7.372;2023-06-10T10:10:17;98511.06;;;28.04;38.30
47430;BME280;33181;49.246;7.372;2023-06-10T10:12:47;98514.44;;;28.28;38.20
47430;BME280;33181;49.246;7.372;2023-06-10T10:15:17;98513.81;;;28.38;38.03
47430;BME280;33181;49.246;7.372;2023-06-10T10:17:53;98512.16;;;28.71;37.52
47430;BME280;33181;49.246;7.372;2023-06-10T10:20:27;98523.06;;;28.59;37.04
47430;BME280;33181;49.246;7.372;2023-06-10T10:22:57;98508.78;;;28.80;37.60
47430;BME280;33181;49.246;7.372;2023-06-10T10:25:28;98507.56;;;29.05;36.50
47430;BME280;33181;49.246;7.372;2023-06-10T10:28:08;98514.63;;;28.55;37.38
47430;BME280;33181;49.246;7.372;2023-06-10T10:30:44;98508.00;;;29.19;36.98
47430;BME280;33181;49.246;7.372;2023-06-10T10:33:16;98510.41;;;29.15;36.16
47430;BME280;33181;49.246;7.372;2023-06-10T10:35:45;98504.06;;;29.26;37.10
47430;BME280;33181;49.246;7.372;2023-06-10T10:38:12;98509.31;;;29.16;35.64
47430;BME280;33181;49.246;7.372;2023-06-10T10:40:39;98513.38;;;29.14;36.57
47430;BME280;33181;49.246;7.372;2023-06-10T10:43:06;98517.56;;;29.04;36.74
47430;BME280;33181;49.246;7.372;2023-06-10T10:45:34;98510.44;;;28.64;37.45
47430;BME280;33181;49.246;7.372;2023-06-10T10:48:08;98512.22;;;28.93;36.90
47430;BME280;33181;49.246;7.372;2023-06-10T10:50:38;98498.13;;;29.07;36.79
47430;BME280;33181;49.246;7.372;2023-06-10T10:53:05;98502.88;;;29.39;36.75
47430;BME280;33181;49.246;7.372;2023-06-10T10:55:32;98501.41;;;29.75;36.38
47430;BME280;33181;49.246;7.372;2023-06-10T10:58:03;98501.41;;;29.75;35.55
47430;BME280;33181;49.246;7.372;2023-06-10T11:00:35;98493.94;;;29.88;35.62
47430;BME280;33181;49.246;7.372;2023-06-10T11:03:09;98503.28;;;29.75;36.11
47430;BME280;33181;49.246;7.372;2023-06-10T11:05:46;98500.34;;;29.76;36.38
47430;BME280;33181;49.246;7.372;2023-06-10T11:11:27;98484.09;;;29.76;35.64
47430;BME280;33181;49.246;7.372;2023-06-10T11:16:29;98486.66;;;29.44;36.27
47430;BME280;33181;49.246;7.372;2023-06-10T11:18:56;98480.72;;;29.64;36.67
47430;BME280;33181;49.246;7.372;2023-06-10T11:21:25;98487.19;;;29.90;36.16
47430;BME280;33181;49.246;7.372;2023-06-10T11:23:51;98487.03;;;30.29;35.23
47430;BME280;33181;49.246;7.372;2023-06-10T11:31:26;98486.63;;;30.47;34.81
47430;BME280;33181;49.246;7.372;2023-06-10T11:34:13;98487.97;;;30.82;33.66
47430;BME280;33181;49.246;7.372;2023-06-10T11:36:41;98484.75;;;30.80;34.57
47430;BME280;33181;49.246;7.372;2023-06-10T11:39:09;98477.34;;;31.23;34.43
47430;BME280;33181;49.246;7.372;2023-06-10T11:41:38;98479.53;;;31.21;34.19
47430;BME280;33181;49.246;7.372;2023-06-10T11:44:12;98480.22;;;31.64;33.89
47430;BME280;33181;49.246;7.372;2023-06-10T11:46:39;98485.09;;;31.57;33.16
47430;BME280;33181;49.246;7.372;2023-06-10T11:49:06;98491.53;;;30.45;33.80
47430;BME280;33181;49.246;7.372;2023-06-10T11:51:39;98493.28;;;30.02;34.78
47430;BME280;33181;49.246;7.372;2023-06-10T11:54:08;98490.25;;;29.72;35.27
47430;BME280;33181;49.246;7.372;2023-06-10T11:56:35;98483.31;;;29.81;35.37
47430;BME280;33181;49.246;7.372;2023-06-10T11:59:06;98482.59;;;29.91;35.55
47430;BME280;33181;49.246;7.372;2023-06-10T12:01:37;98480.34;;;30.10;35.16
47430;BME280;33181;49.246;7.372;2023-06-10T12:04:13;98469.72;;;29.54;34.99
47430;BME280;33181;49.246;7.372;2023-06-10T12:06:52;98489.63;;;29.43;36.04
47430;BME280;33181;49.246;7.372;2023-06-10T12:09:27;98487.88;;;29.31;35.91
47430;BME280;33181;49.246;7.372;2023-06-10T12:12:04;98477.13;;;29.37;35.20
47430;BME280;33181;49.246;7.372;2023-06-10T12:19:58;98476.81;;;29.33;35.97
47430;BME280;33181;49.246;7.372;2023-06-10T12:22:24;98471.28;;;29.67;36.42
47430;BME280;33181;49.246;7.372;2023-06-10T12:25:01;98469.56;;;29.88;35.51
47430;BME280;33181;49.246;7.372;2023-06-10T12:27:27;98469.00;;;30.45;35.42
47430;BME280;33181;49.246;7.372;2023-06-10T12:29:56;98462.63;;;31.09;34.37
47430;BME280;33181;49.246;7.372;2023-06-10T12:32:46;98466.41;;;31.03;33.69
47430;BME280;33181;49.246;7.372;2023-06-10T12:35:15;98455.47;;;30.92;34.07
47430;BME280;33181;49.246;7.372;2023-06-10T12:37:54;98461.88;;;30.76;32.96
47430;BME280;33181;49.246;7.372;2023-06-10T12:40:30;98466.66;;;30.59;33.08
47430;BME280;33181;49.246;7.372;2023-06-10T12:42:58;98470.81;;;30.34;33.80
47430;BME280;33181;49.246;7.372;2023-06-10T12:45:38;98472.19;;;30.10;34.78
47430;BME280;33181;49.246;7.372;2023-06-10T12:48:23;98467.72;;;29.66;35.93
47430;BME280;33181;49.246;7.372;2023-06-10T12:50:57;98476.81;;;29.33;36.22
47430;BME280;33181;49.246;7.372;2023-06-10T12:53:25;98465.28;;;29.21;36.50
47430;BME280;33181;49.246;7.372;2023-06-10T12:55:54;98473.22;;;28.88;37.68
47430;BME280;33181;49.246;7.372;2023-06-10T12:58:20;98468.81;;;28.82;37.09
47430;BME280;33181;49.246;7.372;2023-06-10T13:00:47;98463.69;;;28.64;37.40
47430;BME280;33181;49.246;7.372;2023-06-10T13:03:14;98463.09;;;28.62;37.61
47430;BME280;33181;49.246;7.372;2023-06-10T13:05:40;98463.59;;;28.59;38.04
47430;BME280;33181;49.246;7.372;2023-06-10T13:08:08;98460.44;;;28.84;37.35
47430;BME280;33181;49.246;7.372;2023-06-10T13:10:36;98466.03;;;29.38;37.05
47430;BME280;33181;49.246;7.372;2023-06-10T13:13:03;98457.47;;;29.95;36.81
47430;BME280;33181;49.246;7.372;2023-06-10T13:15:35;98458.72;;;30.47;35.40
47430;BME280;33181;49.246;7.372;2023-06-10T13:18:04;98440.78;;;30.78;34.07
47430;BME280;33181;49.246;7.372;2023-06-10T13:20:30;98443.66;;;31.19;34.33
47430;BME280;33181;49.246;7.372;2023-06-10T13:22:56;98447.69;;;30.59;34.29